Time;durP1;ratioP1;P1;durP2;ratioP2;P2;SDS_P1;SDS_P2;PMS_P1;PMS_P2;Temp;Humidity;BMP_temperature;BMP_pressure;BME280_temperature;BME280_humidity;BME280_pressure;Samples;Min_cycle;Max_cycle;Signal;HPM_P1;HPM_P2
2023/07/09 00:00:47;;;;;;;9.80;4.40;;;;;;;18.57;58.45;101080.98;105067;1276;97059;-78
2023/07/09 00:03:53;;;;;;;11.10;4.80;;;;;;;18.52;58.70;101082.92;105236;1271;102841;-79
2023/07/09 00:06:41;;;;;;;6.80;4.60;;;;;;;18.47;58.89;101083.93;105273;1271;100181;-78
2023/07/09 00:09:26;;;;;;;6.20;4.20;;;;;;;18.44;59.11;101083.08;105298;1272;99042;-79
2023/07/09 00:12:16;;;;;;;7.50;4.90;;;;;;;18.39;59.47;101084.86;105204;1277;96723;-79
2023/07/09 00:15:01;;;;;;;5.20;4.20;;;;;;;18.33;59.78;101083.64;105097;1276;98044;-78
2023/07/09 00:17:47;;;;;;;8.80;4.90;;;;;;;18.29;60.00;101083.31;105317;1271;100867;-79
2023/07/09 00:20:33;;;;;;;6.80;4.30;;;;;;;18.26;60.14;101082.19;104643;1271;99081;-77
2023/07/09 00:23:20;;;;;;;7.30;5.00;;;;;;;18.22;60.46;101083.70;104442;1277;97778;-76
2023/07/09 00:26:13;;;;;;;7.60;4.80;;;;;;;18.19;60.56;101082.09;104424;1276;96643;-78
2023/07/09 00:29:00;;;;;;;5.70;4.90;;;;;;;18.16;60.82;101081.88;104506;1276;97174;-78
2023/07/09 00:31:45;;;;;;;7.70;3.90;;;;;;;18.15;61.03;101082.39;104342;1276;100089;-77
2023/07/09 00:34:30;;;;;;;9.80;4.30;;;;;;;18.13;61.31;101084.83;104521;1271;99085;-79
2023/07/09 00:37:19;;;;;;;8.20;4.40;;;;;;;18.12;61.44;101087.30;104460;1276;97757;-78
2023/07/09 00:40:05;;;;;;;6.70;4.50;;;;;;;18.11;61.64;101087.90;104318;1271;96734;-78
2023/07/09 00:42:54;;;;;;;6.10;4.50;;;;;;;18.08;61.78;101087.77;104466;1276;96539;-77
2023/07/09 00:45:39;;;;;;;5.80;5.10;;;;;;;18.06;61.98;101088.52;105712;1273;100043;-78
2023/07/09 00:48:26;;;;;;;9.80;4.80;;;;;;;18.04;62.17;101087.54;104572;1272;99113;-77
2023/07/09 00:51:16;;;;;;;6.80;5.10;;;;;;;18.03;62.18;101090.85;104523;1271;98382;-78
2023/07/09 00:54:14;;;;;;;4.90;4.30;;;;;;;17.99;62.25;101089.59;105018;1272;96426;-78
2023/07/09 00:57:07;;;;;;;13.70;4.20;;;;;;;17.93;62.46;101088.48;105278;1276;96775;-79
2023/07/09 01:00:06;;;;;;;6.70;4.70;;;;;;;17.87;62.91;101084.09;105309;1276;100006;-78
2023/07/09 01:02:52;;;;;;;8.10;4.40;;;;;;;17.79;62.93;101084.37;104772;1271;107786;-79
2023/07/09 01:05:38;;;;;;;7.50;5.30;;;;;;;17.75;63.29;101086.85;105344;1276;97755;-79
2023/07/09 01:08:27;;;;;;;8.70;4.80;;;;;;;17.69;63.53;101084.77;105192;1275;96810;-79
2023/07/09 01:11:23;;;;;;;7.50;4.70;;;;;;;17.66;63.64;101082.50;105362;1271;96561;-79
2023/07/09 01:14:19;;;;;;;8.00;4.60;;;;;;;17.63;63.68;101081.66;105360;1271;100071;-78
2023/07/09 01:17:07;;;;;;;7.60;4.80;;;;;;;17.58;63.96;101073.73;105843;1271;100320;-79
2023/07/09 01:19:54;;;;;;;6.20;4.60;;;;;;;17.56;64.30;101073.89;105965;1271;97753;-78
2023/07/09 01:22:39;;;;;;;6.30;4.70;;;;;;;17.55;64.49;101073.59;105257;1271;96585;-77
2023/07/09 01:25:25;;;;;;;7.80;5.10;;;;;;;17.51;64.60;101072.04;104895;1277;97396;-78
2023/07/09 01:28:10;;;;;;;6.30;4.20;;;;;;;17.48;64.84;101073.30;104568;1271;100035;-77
2023/07/09 01:30:56;;;;;;;9.10;4.00;;;;;;;17.43;64.86;101074.70;104527;1276;99133;-76
2023/07/09 01:33:44;;;;;;;7.70;4.70;;;;;;;17.40;65.01;101076.86;104382;1273;97792;-78
2023/07/09 01:36:31;;;;;;;8.40;4.90;;;;;;;17.36;65.16;101080.77;104537;1273;96637;-77
2023/07/09 01:39:18;;;;;;;6.40;4.70;;;;;;;17.30;65.15;101086.84;104424;1271;97171;-78
2023/07/09 01:42:06;;;;;;;6.40;4.30;;;;;;;17.25;65.34;101089.53;104620;1276;101278;-77
2023/07/09 01:44:53;;;;;;;7.10;5.00;;;;;;;17.20;65.58;101085.19;104641;1275;100934;-77
2023/07/09 01:47:39;;;;;;;5.80;4.30;;;;;;;17.18;65.87;101086.29;104524;1271;97773;-77
2023/07/09 01:50:26;;;;;;;6.70;4.70;;;;;;;17.17;65.92;101087.95;104573;1271;96742;-78
2023/07/09 01:53:17;;;;;;;5.00;4.50;;;;;;;17.15;66.12;101089.92;104462;1271;97111;-77
2023/07/09 01:56:03;;;;;;;;;;;;;;;17.13;66.23;101086.40;104452;1271;101280;-77
2023/07/09 01:58:49;;;;;;;6.90;4.20;;;;;;;17.09;66.33;101087.05;104380;1274;99117;-77
2023/07/09 02:01:36;;;;;;;6.20;4.40;;;;;;;17.06;66.44;101086.77;104369;1273;97904;-78
2023/07/09 02:04:22;;;;;;;6.70;4.70;;;;;;;17.04;66.54;101093.38;104395;1276;96738;-79
2023/07/09 02:07:08;;;;;;;6.60;5.00;;;;;;;16.99;66.56;101090.98;104365;1273;97166;-77
2023/07/09 02:09:55;;;;;;;9.10;4.70;;;;;;;16.98;66.73;101089.88;104298;1271;100083;-77
2023/07/09 02:12:40;;;;;;;5.90;4.70;;;;;;;16.99;66.78;101088.65;104411;1271;100058;-77
2023/07/09 02:15:26;;;;;;;7.00;5.50;;;;;;;17.02;66.75;101094.71;104561;1276;97714;-77
2023/07/09 02:18:13;;;;;;;7.40;4.70;;;;;;;17.04;66.57;101095.00;104644;1276;96650;-79
2023/07/09 02:20:58;;;;;;;5.20;4.30;;;;;;;17.04;66.65;101099.87;105328;1275;98381;-77
2023/07/09 02:23:44;;;;;;;6.60;4.90;;;;;;;17.03;66.62;101103.55;104761;1274;101314;-78
2023/07/09 02:26:29;;;;;;;7.40;4.70;;;;;;;17.02;66.58;101098.30;104848;1276;100355;-78
2023/07/09 02:29:15;;;;;;;6.20;4.40;;;;;;;17.01;66.65;101097.14;105008;1275;97798;-78
2023/07/09 02:32:02;;;;;;;6.90;4.50;;;;;;;16.98;66.81;101100.98;105642;1270;96611;-78
2023/07/09 02:34:52;;;;;;;8.20;4.60;;;;;;;16.96;66.90;101101.45;105034;1272;97162;-79
2023/07/09 02:37:38;;;;;;;6.30;4.40;;;;;;;16.94;67.08;101101.92;105014;1275;100291;-77
2023/07/09 02:40:23;;;;;;;6.00;4.40;;;;;;;16.93;67.06;101104.54;104503;1276;99134;-77
2023/07/09 02:43:09;;;;;;;6.20;4.40;;;;;;;16.92;67.17;101108.88;104701;1274;99106;-77
2023/07/09 02:45:55;;;;;;;9.30;4.60;;;;;;;16.89;67.38;101112.23;104692;1276;97739;-77
2023/07/09 02:48:40;;;;;;;9.50;5.70;;;;;;;16.82;67.44;101112.05;104544;1271;98228;-77
2023/07/09 02:51:28;;;;;;;8.30;4.90;;;;;;;16.79;67.56;101113.56;104582;1276;100860;-77
2023/07/09 02:54:14;;;;;;;6.30;4.90;;;;;;;16.76;67.69;101115.49;104495;1271;100251;-76
2023/07/09 02:56:59;;;;;;;6.90;4.60;;;;;;;16.74;67.98;101118.52;104788;1275;99089;-78
2023/07/09 02:59:45;;;;;;;8.30;4.90;;;;;;;16.69;67.91;101125.00;104514;1274;96633;-77
2023/07/09 03:02:30;;;;;;;5.10;4.40;;;;;;;16.64;67.95;101127.27;104489;1271;97169;-77
2023/07/09 03:05:16;;;;;;;6.50;4.80;;;;;;;16.62;68.15;101126.65;104429;1276;99965;-77
2023/07/09 03:08:01;;;;;;;6.00;4.60;;;;;;;16.57;68.32;101128.38;104426;1277;100367;-78
2023/07/09 03:10:47;;;;;;;6.60;4.80;;;;;;;16.47;68.57;101128.83;104584;1292;98458;-78
2023/07/09 03:13:32;;;;;;;6.80;4.30;;;;;;;16.38;68.91;101134.05;104388;1279;96712;-77
2023/07/09 03:16:19;;;;;;;6.50;4.70;;;;;;;16.34;69.28;101136.06;104456;1276;97173;-78
2023/07/09 03:19:05;;;;;;;6.10;4.30;;;;;;;16.31;69.57;101137.77;104593;1271;101388;-78
2023/07/09 03:21:51;;;;;;;5.10;4.60;;;;;;;16.29;69.75;101137.10;104721;1276;99778;-78
2023/07/09 03:24:36;;;;;;;6.30;4.70;;;;;;;16.24;70.07;101137.24;104476;1276;97764;-77
2023/07/09 03:27:22;;;;;;;5.30;4.80;;;;;;;16.18;70.26;101138.83;104532;1277;96725;-78
2023/07/09 03:30:07;;;;;;;9.40;4.60;;;;;;;16.16;70.49;101139.71;104660;1271;96557;-77
2023/07/09 03:32:53;;;;;;;6.30;4.60;;;;;;;16.16;70.76;101141.70;104505;1271;101297;-77
2023/07/09 03:35:39;;;;;;;5.40;4.90;;;;;;;16.14;70.83;101138.79;104670;1271;99146;-78
2023/07/09 03:38:24;;;;;;;6.90;4.40;;;;;;;16.12;71.07;101139.63;105696;1275;98334;-79
2023/07/09 03:41:10;;;;;;;5.60;5.00;;;;;;;16.10;71.28;101138.55;105032;1276;97906;-79
2023/07/09 03:43:55;;;;;;;7.00;4.40;;;;;;;16.10;71.51;101138.21;105280;1271;96606;-78
2023/07/09 03:46:41;;;;;;;5.50;4.90;;;;;;;16.09;71.76;101138.89;105441;1271;100053;-79
2023/07/09 03:49:26;;;;;;;5.20;4.30;;;;;;;16.11;71.88;101138.47;105511;1271;99157;-78
2023/07/09 03:52:12;;;;;;;5.50;4.20;;;;;;;16.14;72.03;101139.91;105519;1274;98597;-79
2023/07/09 03:54:59;;;;;;;9.20;5.00;;;;;;;16.18;72.31;101139.23;105456;1275;96631;-79
2023/07/09 03:57:45;;;;;;;4.70;4.10;;;;;;;16.25;72.31;101141.52;105575;1271;97091;-78
2023/07/09 04:00:31;;;;;;;5.30;4.30;;;;;;;16.29;72.25;101146.25;105476;1270;100640;-78
2023/07/09 04:03:17;;;;;;;7.70;4.00;;;;;;;16.34;72.40;101148.79;105437;1271;99304;-77
2023/07/09 04:06:02;;;;;;;6.20;4.60;;;;;;;16.40;72.52;101150.85;105507;1273;97749;-79
2023/07/09 04:08:48;;;;;;;7.10;4.40;;;;;;;16.45;72.41;101154.30;105486;1271;96875;-78
2023/07/09 04:11:33;;;;;;;6.60;4.20;;;;;;;16.52;72.64;101154.30;105527;1273;97704;-78
2023/07/09 04:14:19;;;;;;;7.80;4.00;;;;;;;16.59;72.55;101158.00;105636;1271;100094;-79
2023/07/09 04:17:05;;;;;;;6.30;4.00;;;;;;;16.67;72.41;101156.36;105692;1276;100338;-78
2023/07/09 04:19:51;;;;;;;7.20;4.00;;;;;;;16.75;72.66;101156.36;106122;1271;97844;-78
2023/07/09 04:22:37;;;;;;;5.20;4.10;;;;;;;16.84;72.46;101154.71;105595;1271;97116;-79
2023/07/09 04:25:23;;;;;;;4.40;3.70;;;;;;;16.91;72.01;101155.01;105529;1276;97185;-79
2023/07/09 04:28:08;;;;;;;7.20;4.10;;;;;;;16.98;72.09;101155.48;104979;1271;100590;-78
2023/07/09 04:30:53;;;;;;;6.40;3.80;;;;;;;17.06;71.86;101162.36;105304;1271;99142;-78
2023/07/09 04:33:39;;;;;;;4.80;4.10;;;;;;;17.15;71.92;101165.77;104914;1271;98334;-77
2023/07/09 04:36:25;;;;;;;8.30;4.10;;;;;;;17.23;71.78;101163.31;105000;1273;96727;-78
2023/07/09 04:39:11;;;;;;;7.80;3.90;;;;;;;17.31;71.50;101163.52;105017;1271;97812;-78
2023/07/09 04:41:57;;;;;;;5.30;3.70;;;;;;;17.40;71.25;101164.35;104950;1270;100015;-78
2023/07/09 04:44:45;;;;;;;3.90;3.50;;;;;;;17.46;70.97;101161.55;105068;1270;100093;-78
2023/07/09 04:47:30;;;;;;;5.20;3.80;;;;;;;17.54;70.91;101158.29;105099;1271;97752;-77
2023/07/09 04:50:16;;;;;;;6.30;3.10;;;;;;;17.64;71.40;101157.64;104959;1271;96588;-78
2023/07/09 04:53:02;;;;;;;6.10;3.20;;;;;;;17.73;70.77;101164.56;104954;1276;97205;-77
2023/07/09 04:55:47;;;;;;;4.20;3.40;;;;;;;17.81;70.16;101168.35;104955;1272;99970;-78
2023/07/09 04:58:33;;;;;;;4.30;2.90;;;;;;;17.87;69.69;101165.14;104928;1276;99113;-78
2023/07/09 05:01:19;;;;;;;5.80;3.30;;;;;;;17.96;69.53;101163.81;105017;1276;97743;-78
2023/07/09 05:04:04;;;;;;;4.40;3.10;;;;;;;18.07;69.40;101164.05;104921;1273;96312;-79
2023/07/09 05:06:50;;;;;;;5.00;3.80;;;;;;;18.17;69.35;101165.59;104886;1271;96636;-78
2023/07/09 05:09:36;;;;;;;4.30;3.40;;;;;;;18.28;68.72;101167.04;104959;1271;100001;-78
2023/07/09 05:12:21;;;;;;;5.00;3.30;;;;;;;18.39;68.52;101165.80;104958;1275;100399;-78
2023/07/09 05:15:07;;;;;;;3.90;3.20;;;;;;;18.49;68.35;101163.26;105050;1275;98525;-78
2023/07/09 05:17:52;;;;;;;3.30;2.70;;;;;;;18.59;67.97;101164.54;104990;1276;97811;-78
2023/07/09 05:20:38;;;;;;;3.90;2.90;;;;;;;18.68;67.80;101164.76;104972;1271;96749;-79
2023/07/09 05:23:26;;;;;;;4.80;2.90;;;;;;;18.77;67.47;101167.48;105011;1271;99993;-78
2023/07/09 05:26:12;;;;;;;3.60;2.80;;;;;;;18.90;67.38;101169.48;105030;1271;99143;-79
2023/07/09 05:28:58;;;;;;;2.90;2.60;;;;;;;19.02;67.33;101174.59;104962;1272;97749;-79
2023/07/09 05:31:44;;;;;;;3.20;2.30;;;;;;;19.14;66.99;101178.19;105050;1271;96590;-79
2023/07/09 05:34:29;;;;;;;7.70;2.70;;;;;;;19.26;66.48;101179.20;105137;1271;96607;-79
2023/07/09 05:37:15;;;;;;;3.50;2.30;;;;;;;19.36;65.80;101176.84;105149;1271;100061;-79
2023/07/09 05:40:00;;;;;;;5.80;2.40;;;;;;;19.46;65.47;101175.78;105027;1273;99086;-79
2023/07/09 05:42:46;;;;;;;5.20;2.60;;;;;;;19.58;65.33;101174.23;105158;1271;97902;-79
2023/07/09 05:45:31;;;;;;;3.50;2.30;;;;;;;19.69;65.31;101174.01;104963;1271;96718;-79
2023/07/09 05:48:17;;;;;;;4.20;2.20;;;;;;;19.81;64.77;101173.98;105793;1271;96648;-80
2023/07/09 05:51:03;;;;;;;3.80;2.10;;;;;;;19.92;64.55;101176.77;105831;1271;100013;-79
2023/07/09 05:53:49;;;;;;;4.40;2.30;;;;;;;20.05;64.63;101181.01;105683;1273;99107;-80
2023/07/09 05:56:35;;;;;;;3.30;2.20;;;;;;;20.16;63.69;101181.11;105459;1271;97844;-78
2023/07/09 05:59:20;;;;;;;5.10;2.50;;;;;;;20.24;63.13;101178.13;105042;1273;96644;-78
2023/07/09 06:02:18;;;;;;;5.00;2.00;;;;;;;20.31;62.91;101180.80;104983;1276;98313;-78
2023/07/09 06:05:03;;;;;;;5.30;2.20;;;;;;;20.38;62.82;101186.08;105130;1274;99976;-78
2023/07/09 06:07:48;;;;;;;2.80;2.10;;;;;;;20.45;62.09;101187.98;104952;1273;100340;-78
2023/07/09 06:10:34;;;;;;;4.40;1.60;;;;;;;20.52;61.74;101183.15;105023;1276;97743;-79
2023/07/09 06:13:21;;;;;;;3.60;2.10;;;;;;;20.58;61.54;101186.88;105084;1271;96633;-79
2023/07/09 06:16:07;;;;;;;3.00;2.00;;;;;;;20.67;61.22;101188.21;104965;1276;96788;-78
2023/07/09 06:18:52;;;;;;;3.90;1.90;;;;;;;20.74;61.41;101188.65;105266;1276;100044;-80
2023/07/09 06:21:39;;;;;;;2.90;1.90;;;;;;;20.85;60.72;101189.04;105104;1274;100092;-79
2023/07/09 06:24:24;;;;;;;2.80;2.10;;;;;;;20.92;60.38;101189.56;105110;1271;98768;-79
2023/07/09 06:27:10;;;;;;;5.30;1.90;;;;;;;21.01;60.28;101191.24;105094;1277;96682;-78
2023/07/09 06:29:55;;;;;;;3.50;2.00;;;;;;;21.12;60.39;101189.48;105085;1271;97166;-79
2023/07/09 06:32:40;;;;;;;3.90;1.90;;;;;;;21.22;59.86;101187.41;105435;1271;99994;-79
2023/07/09 06:35:26;;;;;;;3.30;1.90;;;;;;;21.29;59.05;101185.04;105292;1271;100324;-80
2023/07/09 06:38:12;;;;;;;3.00;1.70;;;;;;;21.34;58.58;101188.50;105224;1270;98295;-78
2023/07/09 06:40:57;;;;;;;3.90;2.50;;;;;;;21.39;58.67;101191.78;105167;1274;96626;-77
2023/07/09 06:43:43;;;;;;;3.60;2.20;;;;;;;21.49;58.43;101200.25;105228;1271;96523;-79
2023/07/09 06:46:29;;;;;;;2.70;2.00;;;;;;;21.57;57.78;101205.64;105192;1271;101452;-79
2023/07/09 06:49:14;;;;;;;4.50;1.90;;;;;;;21.64;57.61;101203.98;105192;1276;100158;-79
2023/07/09 06:52:00;;;;;;;4.10;1.80;;;;;;;21.73;57.25;101198.73;105073;1271;99014;-79
2023/07/09 06:54:45;;;;;;;2.20;1.70;;;;;;;21.82;57.09;101194.13;105118;1277;96556;-79
2023/07/09 06:57:31;;;;;;;4.80;1.70;;;;;;;21.90;56.85;101191.05;105253;1271;97642;-79
2023/07/09 07:00:17;;;;;;;5.70;2.00;;;;;;;21.97;56.35;101194.97;105200;1275;100190;-79
2023/07/09 07:03:04;;;;;;;4.20;1.70;;;;;;;22.02;55.73;101199.86;105241;1272;99093;-78
2023/07/09 07:05:53;;;;;;;6.30;2.80;;;;;;;22.04;55.15;101205.42;105322;1271;99031;-80
2023/07/09 07:08:38;;;;;;;3.10;1.50;;;;;;;22.07;55.08;101204.77;105853;1275;96627;-79
2023/07/09 07:11:29;;;;;;;4.10;1.80;;;;;;;22.11;54.73;101202.59;106101;1271;96535;-80
2023/07/09 07:14:15;;;;;;;3.70;1.80;;;;;;;22.16;54.28;101199.38;105749;1275;100011;-80
2023/07/09 07:17:00;;;;;;;2.00;1.40;;;;;;;22.21;54.67;101200.63;105613;1275;99097;-80
2023/07/09 07:19:46;;;;;;;3.00;1.80;;;;;;;22.30;54.09;101203.44;105495;1271;98404;-80
2023/07/09 07:22:32;;;;;;;3.50;1.60;;;;;;;22.37;54.01;101204.27;105692;1276;96570;-80
2023/07/09 07:25:17;;;;;;;3.40;1.60;;;;;;;22.42;53.49;101201.57;105720;1271;96927;-79
2023/07/09 07:28:03;;;;;;;2.60;1.70;;;;;;;22.49;52.63;101197.02;105241;1271;101317;-80
2023/07/09 07:31:02;;;;;;;2.80;1.60;;;;;;;22.55;52.28;101193.98;105118;1274;99065;-79
2023/07/09 07:33:47;;;;;;;3.70;1.80;;;;;;;22.61;52.08;101187.50;105358;1274;99492;-79
2023/07/09 07:36:33;;;;;;;6.20;1.80;;;;;;;22.68;52.11;101184.72;105007;1271;96650;-79
2023/07/09 07:39:19;;;;;;;5.60;1.60;;;;;;;22.76;51.95;101184.23;105255;1276;96474;-79
2023/07/09 07:42:05;;;;;;;6.30;1.50;;;;;;;22.83;51.50;101179.45;105162;1274;113920;-78
2023/07/09 07:44:50;;;;;;;2.40;1.40;;;;;;;22.88;50.95;101178.38;105062;1271;99685;-79
2023/07/09 07:47:36;;;;;;;2.10;1.40;;;;;;;22.93;50.14;101183.25;105173;1271;98257;-79
2023/07/09 07:50:21;;;;;;;1.30;1.10;;;;;;;22.97;48.87;101184.34;105118;1271;96742;-79
2023/07/09 07:53:08;;;;;;;2.80;1.00;;;;;;;23.04;47.88;101189.28;105202;1271;96643;-79
2023/07/09 07:55:56;;;;;;;2.00;1.40;;;;;;;23.07;47.62;101188.23;105322;1276;108619;-79
2023/07/09 07:58:42;;;;;;;1.40;1.30;;;;;;;23.12;48.09;101188.52;105152;1271;99855;-79
2023/07/09 08:01:28;;;;;;;1.40;1.10;;;;;;;23.19;48.22;101187.67;105055;1276;97740;-79
2023/07/09 08:04:13;;;;;;;2.00;1.40;;;;;;;23.24;47.65;101184.45;105147;1271;96639;-79
2023/07/09 08:06:59;;;;;;;2.10;1.20;;;;;;;23.29;47.80;101187.20;105126;1271;97083;-79
2023/07/09 08:09:46;;;;;;;1.20;1.10;;;;;;;23.40;47.99;101188.59;105163;1271;100065;-80
2023/07/09 08:12:32;;;;;;;1.30;1.00;;;;;;;23.49;47.52;101194.55;105188;1274;99781;-81
2023/07/09 08:15:18;;;;;;;3.60;1.70;;;;;;;23.56;47.60;101195.44;105201;1274;97866;-80
2023/07/09 08:18:03;;;;;;;3.40;1.70;;;;;;;23.62;47.35;101199.61;105132;1276;96722;-79
2023/07/09 08:20:49;;;;;;;2.20;1.30;;;;;;;23.65;47.23;101195.27;106904;1271;96501;-80
2023/07/09 08:23:35;;;;;;;3.40;1.30;;;;;;;23.73;47.28;101195.28;106741;1274;100024;-79
2023/07/09 08:26:20;;;;;;;2.60;1.20;;;;;;;23.80;47.47;101192.67;105385;1271;99115;-81
2023/07/09 08:29:05;;;;;;;0.90;0.80;;;;;;;23.89;46.07;101187.83;105635;1271;97712;-80
2023/07/09 08:31:51;;;;;;;1.20;0.90;;;;;;;23.93;45.61;101189.40;105700;1274;96660;-79
2023/07/09 08:34:39;;;;;;;1.80;1.20;;;;;;;24.00;45.67;101185.73;105160;1270;97142;-79
2023/07/09 08:37:25;;;;;;;2.10;1.20;;;;;;;24.09;44.52;101187.86;105536;1276;100143;-79
2023/07/09 08:40:14;;;;;;;1.70;1.10;;;;;;;24.13;44.10;101183.92;105566;1271;100183;-80
2023/07/09 08:43:11;;;;;;;2.50;1.00;;;;;;;24.17;43.98;101182.69;106426;1271;99448;-80
2023/07/09 08:46:19;;;;;;;2.00;1.10;;;;;;;24.18;43.59;101186.09;105935;1276;96632;-80
2023/07/09 08:49:17;;;;;;;3.60;1.00;;;;;;;24.21;43.89;101179.74;105814;1276;96537;-80
2023/07/09 08:52:12;;;;;;;2.40;1.00;;;;;;;24.26;43.49;101180.88;105965;1274;100038;-80
2023/07/09 08:55:03;;;;;;;4.10;1.70;;;;;;;24.30;42.82;101181.36;105919;1270;99243;-80
2023/07/09 08:57:56;;;;;;;1.50;1.00;;;;;;;24.37;42.86;101183.48;105954;1271;97785;-80
2023/07/09 09:00:41;;;;;;;3.30;1.10;;;;;;;24.43;42.87;101174.27;105751;1276;96631;-81
2023/07/09 09:03:30;;;;;;;2.70;1.10;;;;;;;24.50;42.71;101174.64;106107;1270;97713;-80
2023/07/09 09:06:22;;;;;;;2.50;1.10;;;;;;;24.56;42.73;101172.65;105919;1273;100067;-79
2023/07/09 09:09:33;;;;;;;1.60;0.90;;;;;;;24.64;43.02;101175.39;106715;1272;99132;-79
2023/07/09 09:12:27;;;;;;;3.50;1.40;;;;;;;24.67;42.38;101173.97;105550;1271;98948;-79
2023/07/09 09:15:17;;;;;;;1.40;1.00;;;;;;;24.71;42.77;101167.91;105178;1271;96622;-79
2023/07/09 09:18:18;;;;;;;3.20;0.90;;;;;;;24.79;42.76;101166.50;105012;1274;96814;-79
2023/07/09 09:21:15;;;;;;;1.60;0.90;;;;;;;24.88;42.08;101173.95;105267;1271;100020;-79
2023/07/09 09:24:14;;;;;;;1.30;1.00;;;;;;;24.88;40.92;101175.48;105372;1271;100486;-79
2023/07/09 09:27:00;;;;;;;2.00;1.20;;;;;;;24.88;40.71;101171.31;105774;1276;98340;-78
2023/07/09 09:29:45;;;;;;;1.20;0.90;;;;;;;24.89;40.99;101171.48;105208;1275;96638;-78
2023/07/09 09:32:42;;;;;;;1.80;0.80;;;;;;;24.93;40.74;101171.00;105289;1271;97150;-79
2023/07/09 09:35:37;;;;;;;2.80;0.70;;;;;;;24.95;40.16;101169.65;105223;1275;100099;-80
2023/07/09 09:38:22;;;;;;;2.10;1.00;;;;;;;24.99;40.64;101166.21;105012;1276;99111;-78
2023/07/09 09:41:21;;;;;;;0.90;0.80;;;;;;;25.06;40.73;101170.41;105754;1271;97918;-79
2023/07/09 09:44:19;;;;;;;2.60;0.80;;;;;;;25.12;40.16;101172.13;105786;1274;96431;-79
2023/07/09 09:47:04;;;;;;;1.30;0.80;;;;;;;25.16;39.56;101172.26;105818;1276;97202;-79
2023/07/09 09:49:52;;;;;;;2.80;0.80;;;;;;;25.19;38.65;101170.39;105275;1271;101287;-79
2023/07/09 09:52:38;;;;;;;1.40;1.10;;;;;;;25.16;38.54;101173.08;105533;1275;99804;-79
2023/07/09 09:55:28;;;;;;;4.20;0.60;;;;;;;25.13;38.81;101167.46;105174;1276;97794;-79
2023/07/09 09:58:16;;;;;;;1.20;0.70;;;;;;;25.15;38.67;101165.84;105382;1271;96647;-80
2023/07/09 10:01:01;;;;;;;1.30;0.70;;;;;;;25.17;38.33;101169.85;105549;1271;97213;-79
2023/07/09 10:03:51;;;;;;;1.00;0.70;;;;;;;25.22;38.95;101171.40;105494;1273;101635;-79
2023/07/09 10:06:47;;;;;;;5.40;0.80;;;;;;;25.32;38.74;101171.65;105713;1273;100372;-79
2023/07/09 10:09:50;;;;;;;2.60;1.10;;;;;;;25.41;38.67;101173.17;105472;1271;100124;-79
2023/07/09 10:13:01;;;;;;;2.20;0.90;;;;;;;25.46;38.47;101169.96;105874;1273;96640;-79
2023/07/09 10:16:09;;;;;;;2.60;1.00;;;;;;;25.55;38.16;101167.29;105467;1271;96556;-79
2023/07/09 10:18:54;;;;;;;2.30;0.90;;;;;;;25.62;37.93;101168.67;105402;1271;100003;-79
2023/07/09 10:21:49;;;;;;;1.20;0.70;;;;;;;25.66;37.69;101170.92;105669;1271;100076;-79
2023/07/09 10:25:02;;;;;;;0.80;0.60;;;;;;;25.67;37.64;101173.45;105415;1277;99333;-78
2023/07/09 10:28:07;;;;;;;1.60;0.90;;;;;;;25.70;37.27;101169.17;105549;1275;95921;-79
2023/07/09 10:30:58;;;;;;;0.70;0.60;;;;;;;25.71;37.30;101167.25;105474;1273;97815;-79
2023/07/09 10:33:46;;;;;;;1.80;1.10;;;;;;;25.70;37.15;101163.96;105586;1271;101342;-79
2023/07/09 10:36:47;;;;;;;1.00;0.80;;;;;;;25.74;37.07;101161.72;105490;1271;99087;-79
2023/07/09 10:39:41;;;;;;;2.00;0.80;;;;;;;25.80;37.18;101159.20;105430;1273;97813;-80
2023/07/09 10:42:35;;;;;;;1.70;1.10;;;;;;;25.85;37.12;101155.13;105475;1274;96568;-79
2023/07/09 10:45:40;;;;;;;2.60;1.30;;;;;;;25.88;37.38;101156.73;105525;1274;97046;-79
2023/07/09 10:48:32;;;;;;;3.10;0.80;;;;;;;25.94;37.10;101150.64;106002;1271;100633;-80
2023/07/09 10:51:32;;;;;;;0.90;0.70;;;;;;;26.03;37.15;101152.94;105463;1271;99686;-80
2023/07/09 10:54:40;;;;;;;0.90;0.40;;;;;;;26.05;36.19;101159.64;105498;1271;98981;-80
2023/07/09 10:57:52;;;;;;;0.70;0.60;;;;;;;26.06;35.86;101152.94;105477;1276;96658;-79
2023/07/09 11:00:40;;;;;;;2.90;0.60;;;;;;;26.10;35.85;101151.14;105515;1275;96561;-79
2023/07/09 11:03:48;;;;;;;1.10;1.00;;;;;;;26.13;36.17;101148.34;105535;1274;100067;-80
2023/07/09 11:06:49;;;;;;;1.00;0.90;;;;;;;26.21;36.17;101144.60;105502;1271;99432;-80
2023/07/09 11:09:40;;;;;;;1.90;0.60;;;;;;;26.25;35.26;101146.69;105562;1273;98996;-80
2023/07/09 11:12:41;;;;;;;1.20;0.70;;;;;;;26.27;35.30;101151.85;105398;1271;97084;-80
2023/07/09 11:15:48;;;;;;;0.80;0.60;;;;;;;26.32;35.13;101142.88;105493;1276;96576;-80
2023/07/09 11:18:35;;;;;;;2.60;0.80;;;;;;;26.35;34.93;101144.41;105964;1276;99999;-80
2023/07/09 11:21:20;;;;;;;0.90;0.70;;;;;;;26.38;35.05;101146.83;105872;1271;100382;-80
2023/07/09 11:24:31;;;;;;;1.30;0.80;;;;;;;26.42;35.04;101142.04;105884;1271;97727;-80
2023/07/09 11:27:25;;;;;;;0.70;0.50;;;;;;;26.53;35.41;101145.36;105901;1271;96530;-80
2023/07/09 11:30:25;;;;;;;0.90;0.60;;;;;;;26.55;34.52;101144.19;105896;1276;97163;-80
2023/07/09 11:33:26;;;;;;;;;;;;;;;26.55;34.88;101143.77;105651;1275;101266;-80
2023/07/09 11:36:15;;;;;;;1.00;0.60;;;;;;;26.61;34.91;101144.95;105810;1274;100502;-79
2023/07/09 11:39:02;;;;;;;0.70;0.60;;;;;;;26.64;34.69;101140.77;106131;1271;98003;-80
2023/07/09 11:41:48;;;;;;;3.80;0.80;;;;;;;26.62;34.37;101133.02;105939;1276;96679;-81
2023/07/09 11:44:33;;;;;;;2.20;0.90;;;;;;;26.64;34.36;101136.14;105726;1275;97160;-80
2023/07/09 11:47:23;;;;;;;1.40;0.70;;;;;;;26.59;33.91;101134.52;105296;1271;100013;-80
2023/07/09 11:50:23;;;;;;;0.90;0.80;;;;;;;26.56;33.52;101135.13;105635;1271;99143;-80
2023/07/09 11:53:33;;;;;;;0.80;0.50;;;;;;;26.54;33.46;101130.07;105700;1271;97801;-80
2023/07/09 11:56:20;;;;;;;0.60;0.60;;;;;;;26.61;34.08;101134.17;105906;1271;96568;-80
2023/07/09 11:59:10;;;;;;;1.30;0.70;;;;;;;26.67;33.71;101135.54;105843;1271;96650;-80
2023/07/09 12:02:00;;;;;;;2.50;0.80;;;;;;;26.69;33.54;101128.71;105737;1271;100598;-80
2023/07/09 12:04:50;;;;;;;1.20;0.70;;;;;;;26.71;33.43;101122.55;105889;1271;99121;-80
2023/07/09 12:07:36;;;;;;;;;;;;;;;26.77;33.06;101125.30;105965;1271;99552;-79
2023/07/09 12:10:25;;;;;;;0.80;0.60;;;;;;;26.80;33.36;101125.63;105943;1273;96631;-80
2023/07/09 12:13:16;;;;;;;0.80;0.70;;;;;;;26.84;32.94;101129.13;105919;1271;96672;-80
2023/07/09 12:16:01;;;;;;;0.80;0.70;;;;;;;26.84;32.89;101130.78;106013;1276;101316;-80
2023/07/09 12:18:46;;;;;;;0.90;0.70;;;;;;;26.84;33.11;101131.21;105933;1271;99208;-80
2023/07/09 12:21:37;;;;;;;0.50;0.50;;;;;;;26.89;33.55;101128.17;105949;1276;97752;-80
2023/07/09 12:24:24;;;;;;;;;;;;;;;26.96;34.12;101121.86;105796;1274;96499;-80
2023/07/09 12:27:25;;;;;;;0.90;0.70;;;;;;;27.05;34.44;101121.54;105576;1271;96418;-79
2023/07/09 12:30:11;;;;;;;1.70;0.70;;;;;;;27.11;34.35;101115.45;105748;1271;100003;-80
2023/07/09 12:32:57;;;;;;;1.50;0.80;;;;;;;27.20;34.38;101113.42;105807;1271;99165;-80
2023/07/09 12:35:42;;;;;;;1.80;0.90;;;;;;;27.27;34.21;101108.20;105701;1274;99026;-80
2023/07/09 12:38:34;;;;;;;1.10;0.70;;;;;;;27.35;34.56;101110.77;105920;1276;96531;-80
2023/07/09 12:41:23;;;;;;;;;;;;;;;27.44;34.06;101114.95;105865;1271;96038;-79
2023/07/09 12:44:16;;;;;;;1.00;0.90;;;;;;;27.44;33.69;101118.02;105903;1271;101306;-80
2023/07/09 12:47:02;;;;;;;1.30;0.70;;;;;;;27.42;33.37;101120.70;105784;1271;100705;-80
2023/07/09 12:49:51;;;;;;;0.70;0.70;;;;;;;27.45;33.56;101116.77;105696;1276;97773;-79
2023/07/09 12:52:46;;;;;;;1.60;1.00;;;;;;;27.54;33.48;101111.52;105908;1276;96640;-81
2023/07/09 12:55:40;;;;;;;1.50;0.90;;;;;;;27.60;34.13;101109.49;105841;1271;96542;-81